Flight Briefing for CPX787

Departure Arrival
Chek Lap Kok International (VHHH)
Click to view FAA NOTAMS
Kingsford Smith International Airport (YSSY)
Click to view FAA NOTAMS
Departure Time Arrival Time
N/A N/A
Aircraft Distance
B747-400BCF 3997nm
Departure METAR Arrival METAR
VHHH 250330Z 10011KT 070V130 9999 FEW012 SCT026 30/24 Q1009 NOSIG YSSY 250330Z 33008KT CAVOK 26/04 Q1016 NOSIG
Suggested Route
OCEAN V5 SABNO A583 IBOBI A583 ZAM A461 BUTPA A461 DN J251 TN T74 ENPAG H319 TARAL Y59 RIVET


View recent IFR Routes data
Notes



Charts and Procedures

Charts for VHHH
No chart available
Charts for YSSY
No chart available

Windy.com Weather Map